Open Full Screen Window  High Contrast Mode
Wind Gusting 16 knots
10
September 25, 2018 11:18 AM EDT
Weather Information
Wind Direction
  210 °
Wind Speed
  10 kt (12 mph)
Wind Gust
  16 kt (18 mph)
Altimeter
30.08 in
Visibility
10 SM
Temperature
22° C
72° F
Dewpoint
20° C
68° F
Humidity
88%
1hr Rain Fall
00.00 in.
24hr Rain Fall
00.00 in.
Sky Condition
Overcast @ 1,100 ft
MVFR

METAR KI19 251518Z AUTO 21010G16KT 10SM OVC011 22/20 A3008 RMK AO2 LTG DSNT W T02190202

FAA Disclaimer: The data displayed is for advisory purposes only and is not to be used for flight planning or operations.